createdAt,value
2018-12-19T00:01:33.432Z,48.62
2018-12-19T00:03:59.390Z,48.90
2018-12-19T00:06:25.381Z,48.08
2018-12-19T00:08:51.334Z,48.26
2018-12-19T00:11:17.377Z,48.21
2018-12-19T00:13:43.331Z,48.03
2018-12-19T00:16:09.353Z,49.14
2018-12-19T00:18:35.469Z,48.50
2018-12-19T00:21:01.437Z,48.26
2018-12-19T00:23:27.403Z,48.62
2018-12-19T00:25:53.404Z,48.52
2018-12-19T00:28:19.362Z,48.67
2018-12-19T00:30:45.329Z,48.51
2018-12-19T00:33:11.304Z,48.68
2018-12-19T00:35:37.256Z,48.54
2018-12-19T00:38:03.241Z,48.54
2018-12-19T00:40:29.254Z,48.30
2018-12-19T00:42:55.218Z,48.56
2018-12-19T00:45:21.179Z,48.67
2018-12-19T00:47:47.134Z,48.28
2018-12-19T00:50:13.127Z,49.00
2018-12-19T00:52:39.092Z,48.08
2018-12-19T00:55:05.063Z,48.48
2018-12-19T00:57:31.066Z,48.88
2018-12-19T00:59:57.051Z,48.91
2018-12-19T01:02:23.029Z,48.20
2018-12-19T01:04:49.176Z,49.10
2018-12-19T01:07:15.156Z,48.50
2018-12-19T01:09:41.205Z,48.27
2018-12-19T01:12:07.237Z,48.94
2018-12-19T01:14:33.397Z,49.27
2018-12-19T01:16:59.353Z,48.92
2018-12-19T01:19:25.327Z,49.42
2018-12-19T01:21:51.326Z,48.58
2018-12-19T01:24:17.333Z,48.52
2018-12-19T01:26:43.289Z,48.40
2018-12-19T01:29:09.298Z,49.32
2018-12-19T01:31:35.255Z,48.75
2018-12-19T01:34:01.310Z,48.87
2018-12-19T01:36:28.186Z,49.04
2018-12-19T01:38:54.194Z,48.35
2018-12-19T01:41:20.222Z,48.61
2018-12-19T01:43:46.181Z,48.82
2018-12-19T01:46:12.162Z,48.67
2018-12-19T01:48:38.126Z,49.04
2018-12-19T01:51:04.091Z,49.50
2018-12-19T01:53:30.243Z,49.04
2018-12-19T01:55:56.470Z,49.28
2018-12-19T01:58:22.426Z,48.95
2018-12-19T02:00:48.383Z,48.83
2018-12-19T02:03:14.358Z,48.85
2018-12-19T02:05:40.309Z,49.42
2018-12-19T02:08:06.283Z,48.54
2018-12-19T02:10:32.345Z,48.92
2018-12-19T02:12:58.301Z,48.71
2018-12-19T02:15:24.261Z,48.78
2018-12-19T02:17:50.221Z,49.15
2018-12-19T02:20:16.201Z,49.09
2018-12-19T02:22:42.156Z,48.80
2018-12-19T02:25:08.110Z,48.60
2018-12-19T02:27:34.077Z,49.31
2018-12-19T02:30:00.065Z,49.12
2018-12-19T02:32:26.023Z,48.44
2018-12-19T02:34:51.984Z,48.03
2018-12-19T02:37:18.064Z,48.76
2018-12-19T02:39:44.091Z,48.15
2018-12-19T02:42:10.117Z,47.82
2018-12-19T02:44:36.153Z,48.10
2018-12-19T02:47:02.107Z,48.67
2018-12-19T02:49:28.209Z,49.01
2018-12-19T02:51:54.219Z,48.61
2018-12-19T02:54:20.204Z,48.71
2018-12-19T02:56:46.165Z,48.94
2018-12-19T02:59:12.132Z,49.11
2018-12-19T03:01:38.101Z,48.34
2018-12-19T03:04:04.071Z,48.78
2018-12-19T03:06:30.141Z,49.11
2018-12-19T03:08:56.162Z,48.77
2018-12-19T03:11:22.152Z,49.55
2018-12-19T03:13:48.206Z,49.22
2018-12-19T03:16:14.177Z,49.73
2018-12-19T03:18:40.359Z,49.71
2018-12-19T03:21:06.310Z,48.83
2018-12-19T03:23:32.263Z,49.90
2018-12-19T03:25:58.224Z,49.96
2018-12-19T03:28:24.270Z,49.66
2018-12-19T03:30:50.212Z,49.33
2018-12-19T03:33:16.188Z,49.44
2018-12-19T03:35:42.142Z,49.49
2018-12-19T03:38:08.134Z,50.01
2018-12-19T03:40:34.099Z,49.75
2018-12-19T03:43:00.224Z,49.71
2018-12-19T03:45:26.278Z,49.32
2018-12-19T03:47:52.322Z,49.93
2018-12-19T03:50:18.357Z,49.37
2018-12-19T03:52:44.301Z,49.38
2018-12-19T03:55:10.276Z,49.63
2018-12-19T03:57:36.294Z,49.64
2018-12-19T04:00:02.254Z,49.34
2018-12-19T04:02:28.212Z,49.59
2018-12-19T04:04:54.186Z,50.12
2018-12-19T04:07:20.138Z,50.24
2018-12-19T04:09:46.102Z,49.73
2018-12-19T04:12:12.174Z,49.94
2018-12-19T04:14:38.132Z,49.29
2018-12-19T04:17:04.117Z,49.67
2018-12-19T04:19:30.254Z,49.92
2018-12-19T04:21:56.241Z,49.95
2018-12-19T04:24:22.209Z,50.12
2018-12-19T04:26:48.185Z,50.04
2018-12-19T04:29:14.132Z,50.34
2018-12-19T04:31:40.126Z,49.78
2018-12-19T04:34:06.089Z,50.27
2018-12-19T04:36:32.042Z,49.96
2018-12-19T04:38:57.993Z,49.61
2018-12-19T04:41:23.946Z,49.38
2018-12-19T04:43:49.930Z,49.45
2018-12-19T04:46:15.882Z,50.12
2018-12-19T04:48:41.829Z,49.76
2018-12-19T04:51:07.786Z,49.78
2018-12-19T04:53:33.790Z,50.21
2018-12-19T04:55:59.832Z,50.30
2018-12-19T04:58:26.674Z,50.28
2018-12-19T05:00:52.738Z,50.02
2018-12-19T05:03:18.694Z,50.37
2018-12-19T05:05:44.674Z,50.58
2018-12-19T05:08:10.630Z,49.82
2018-12-19T05:10:36.603Z,50.31
2018-12-19T05:13:02.579Z,50.16
2018-12-19T05:15:28.571Z,49.53
2018-12-19T05:17:54.541Z,50.43
2018-12-19T05:20:20.841Z,49.45
2018-12-19T05:22:46.958Z,49.47
2018-12-19T05:25:12.922Z,50.20
2018-12-19T05:27:38.868Z,49.83
2018-12-19T05:30:04.820Z,50.71
2018-12-19T05:32:30.776Z,50.49
2018-12-19T05:34:56.740Z,50.66
2018-12-19T05:37:22.684Z,50.35
2018-12-19T05:39:48.653Z,50.36
2018-12-19T05:42:14.621Z,49.74
2018-12-19T05:44:40.597Z,50.49
2018-12-19T05:47:06.608Z,49.65
2018-12-19T05:49:32.547Z,49.84
2018-12-19T05:51:58.510Z,50.14
2018-12-19T05:54:24.457Z,49.81
2018-12-19T05:56:50.446Z,50.23
2018-12-19T05:59:16.454Z,50.66
2018-12-19T06:01:42.435Z,50.40
2018-12-19T06:04:08.410Z,49.97
2018-12-19T06:06:34.398Z,50.25
2018-12-19T06:09:00.349Z,49.89
2018-12-19T06:11:26.419Z,50.41
2018-12-19T06:13:52.382Z,50.46
2018-12-19T06:16:18.422Z,50.28
2018-12-19T06:18:44.422Z,49.63
2018-12-19T06:21:10.381Z,49.88
2018-12-19T06:23:36.467Z,50.17
2018-12-19T06:26:02.458Z,50.77
2018-12-19T06:28:28.431Z,50.33
2018-12-19T06:30:54.387Z,50.51
2018-12-19T06:33:20.339Z,49.79
2018-12-19T06:35:46.317Z,49.90
2018-12-19T06:38:12.370Z,50.75
2018-12-19T06:40:38.335Z,50.25
2018-12-19T06:43:04.338Z,50.02
2018-12-19T06:45:30.277Z,50.70
2018-12-19T06:47:56.247Z,50.05
2018-12-19T06:50:22.217Z,50.12
2018-12-19T06:52:48.175Z,50.60
2018-12-19T06:55:14.140Z,50.09
2018-12-19T06:57:40.135Z,50.05
2018-12-19T07:00:06.117Z,50.58
2018-12-19T07:02:32.133Z,49.98
2018-12-19T07:04:58.090Z,49.72
2018-12-19T07:07:24.054Z,50.02
2018-12-19T07:09:50.101Z,50.87
2018-12-19T07:12:16.062Z,50.02
2018-12-19T07:14:42.014Z,50.79
2018-12-19T07:17:08.025Z,50.38
2018-12-19T07:19:34.063Z,50.10
2018-12-19T07:22:00.089Z,50.22
2018-12-19T07:24:26.109Z,50.32
2018-12-19T07:26:52.066Z,50.13
2018-12-19T07:29:18.047Z,49.61
2018-12-19T07:31:44.092Z,49.87
2018-12-19T07:34:10.226Z,49.80
2018-12-19T07:36:36.209Z,50.03
2018-12-19T07:39:02.186Z,50.34
2018-12-19T07:41:28.180Z,49.90
2018-12-19T07:43:54.147Z,49.45
2018-12-19T07:46:20.126Z,50.20
2018-12-19T07:48:46.073Z,49.78
2018-12-19T07:51:12.095Z,50.42
2018-12-19T07:53:38.721Z,49.62
2018-12-19T07:56:04.724Z,50.62
2018-12-19T07:58:30.685Z,49.96
2018-12-19T08:00:56.667Z,49.79
2018-12-19T08:03:22.649Z,50.17
2018-12-19T08:05:48.602Z,50.46
2018-12-19T08:08:14.565Z,50.68
2018-12-19T08:10:40.541Z,51.19
2018-12-19T08:13:06.506Z,50.87
2018-12-19T08:15:32.488Z,50.46
2018-12-19T08:17:58.429Z,50.40
2018-12-19T08:20:24.395Z,51.08
2018-12-19T08:22:50.345Z,50.12
2018-12-19T08:25:16.302Z,50.75
2018-12-19T08:27:42.267Z,51.12
2018-12-19T08:30:08.228Z,50.70
2018-12-19T08:32:34.206Z,51.19
2018-12-19T08:35:00.174Z,51.08
2018-12-19T08:37:26.118Z,50.09
2018-12-19T08:39:52.075Z,50.43
2018-12-19T08:42:18.059Z,49.77
2018-12-19T08:44:44.094Z,50.18
2018-12-19T08:47:10.087Z,49.99
2018-12-19T08:49:36.050Z,50.71
2018-12-19T08:52:02.014Z,49.85
2018-12-19T08:54:28.059Z,50.80
2018-12-19T08:56:54.009Z,50.61
2018-12-19T08:59:19.953Z,50.58
2018-12-19T09:01:45.913Z,50.40
2018-12-19T09:04:12.192Z,50.40
2018-12-19T09:06:38.161Z,51.31
2018-12-19T09:09:04.129Z,50.59
2018-12-19T09:11:30.096Z,50.79
2018-12-19T09:13:56.039Z,50.68
2018-12-19T09:16:21.986Z,50.75
2018-12-19T09:18:47.958Z,50.30
2018-12-19T09:21:13.961Z,50.92
2018-12-19T09:23:39.928Z,50.52
2018-12-19T09:26:05.911Z,51.20
2018-12-19T09:28:31.862Z,51.23
2018-12-19T09:30:57.829Z,51.16
2018-12-19T09:33:27.406Z,51.02
2018-12-19T09:35:51.801Z,50.53
2018-12-19T09:38:17.775Z,51.02
2018-12-19T09:40:43.753Z,50.51
2018-12-19T09:43:09.742Z,50.33
2018-12-19T09:45:35.693Z,50.83
2018-12-19T09:48:01.662Z,51.50
2018-12-19T09:50:27.682Z,50.82
2018-12-19T09:52:53.638Z,50.76
2018-12-19T09:55:19.712Z,50.79
2018-12-19T09:57:45.755Z,50.92
2018-12-19T10:00:11.778Z,51.82
2018-12-19T10:02:37.846Z,51.46
2018-12-19T10:05:03.819Z,50.70
2018-12-19T10:07:29.865Z,50.93
2018-12-19T10:09:55.929Z,51.00
2018-12-19T10:12:21.905Z,50.74
2018-12-19T10:14:47.922Z,50.36
2018-12-19T10:17:14.087Z,51.02
2018-12-19T10:19:40.078Z,50.38
2018-12-19T10:22:06.051Z,50.84
2018-12-19T10:24:32.012Z,51.08
2018-12-19T10:26:57.969Z,51.32
2018-12-19T10:29:24.231Z,51.28
2018-12-19T10:31:50.202Z,50.14
2018-12-19T10:34:16.168Z,50.92
2018-12-19T10:36:42.154Z,51.15
2018-12-19T10:39:08.113Z,50.45
2018-12-19T10:41:34.110Z,51.30
2018-12-19T10:44:00.082Z,50.69
2018-12-19T10:46:26.052Z,51.35
2018-12-19T10:48:52.009Z,51.45
2018-12-19T10:51:17.953Z,50.58
2018-12-19T10:53:43.902Z,50.66
2018-12-19T10:56:09.902Z,50.75
2018-12-19T10:58:35.906Z,50.67
2018-12-19T11:01:01.864Z,51.19
2018-12-19T11:03:27.856Z,50.60
2018-12-19T11:05:54.514Z,50.78
2018-12-19T11:08:20.607Z,51.16
2018-12-19T11:10:46.553Z,51.13
2018-12-19T11:13:12.493Z,50.77
2018-12-19T11:15:38.449Z,50.41
2018-12-19T11:18:04.398Z,51.16
2018-12-19T11:20:30.386Z,50.73
2018-12-19T11:22:56.325Z,50.61
2018-12-19T11:25:22.281Z,50.53
2018-12-19T11:27:48.235Z,49.66
2018-12-19T11:30:14.210Z,50.25
2018-12-19T11:32:40.167Z,50.87
2018-12-19T11:35:06.117Z,51.11
2018-12-19T11:37:32.071Z,50.43
2018-12-19T11:39:58.057Z,50.48
2018-12-19T11:42:24.018Z,50.93
2018-12-19T11:44:49.988Z,51.28
2018-12-19T11:47:15.949Z,50.60
2018-12-19T11:49:41.972Z,50.83
2018-12-19T11:52:07.940Z,50.25
2018-12-19T11:54:33.906Z,50.23
2018-12-19T11:56:59.889Z,50.39
2018-12-19T11:59:25.864Z,51.09
2018-12-19T12:01:51.837Z,50.24
2018-12-19T12:04:17.799Z,50.92
2018-12-19T12:06:43.769Z,51.17
2018-12-19T12:09:09.733Z,50.04
2018-12-19T12:11:35.711Z,50.48
2018-12-19T12:14:01.687Z,50.35
2018-12-19T12:16:27.675Z,50.62
2018-12-19T12:18:53.625Z,50.12
2018-12-19T12:21:19.578Z,51.11
2018-12-19T12:23:47.409Z,51.39
2018-12-19T12:26:13.669Z,50.85
2018-12-19T12:28:39.623Z,51.26
2018-12-19T12:31:05.751Z,51.17
2018-12-19T12:33:31.729Z,51.67
2018-12-19T12:35:57.725Z,50.77
2018-12-19T12:38:23.711Z,51.20
2018-12-19T12:40:49.676Z,50.75
2018-12-19T12:43:15.619Z,50.83
2018-12-19T12:45:41.614Z,51.24
2018-12-19T12:48:07.581Z,50.67
2018-12-19T12:50:33.515Z,50.96
2018-12-19T12:53:00.175Z,51.23
2018-12-19T12:55:26.136Z,51.58
2018-12-19T12:57:52.098Z,50.79
2018-12-19T13:00:18.063Z,51.29
2018-12-19T13:02:44.011Z,50.91
2018-12-19T13:05:09.970Z,52.43
2018-12-19T13:07:35.921Z,51.18
2018-12-19T13:10:01.885Z,51.79
2018-12-19T13:12:27.834Z,50.94
2018-12-19T13:14:53.826Z,51.39
2018-12-19T13:17:19.774Z,51.34
2018-12-19T13:19:45.848Z,51.59
2018-12-19T13:22:12.436Z,50.77
2018-12-19T13:24:38.537Z,51.13
2018-12-19T13:27:04.606Z,51.55
2018-12-19T13:29:30.566Z,51.47
2018-12-19T13:31:56.621Z,51.53
2018-12-19T13:34:22.582Z,51.16
2018-12-19T13:36:48.553Z,50.77
2018-12-19T13:39:14.505Z,50.73
2018-12-19T13:41:40.456Z,51.71
2018-12-19T13:44:06.429Z,51.45
2018-12-19T13:46:32.389Z,51.78
2018-12-19T13:48:58.356Z,51.36
2018-12-19T13:51:24.326Z,51.82
2018-12-19T13:53:50.288Z,51.71
2018-12-19T13:56:16.269Z,51.95
2018-12-19T13:58:42.250Z,51.18
2018-12-19T14:01:08.260Z,51.58
2018-12-19T14:03:34.236Z,51.48
2018-12-19T14:06:00.367Z,50.41
2018-12-19T14:08:26.416Z,50.99
2018-12-19T14:10:52.379Z,51.74
2018-12-19T14:13:18.330Z,50.91
2018-12-19T14:15:44.281Z,51.20
2018-12-19T14:18:10.250Z,50.56
2018-12-19T14:20:36.288Z,51.03
2018-12-19T14:23:02.244Z,50.81
2018-12-19T14:25:28.267Z,51.03
2018-12-19T14:27:54.230Z,50.57
2018-12-19T14:30:20.222Z,50.65
2018-12-19T14:32:46.174Z,51.52
2018-12-19T14:35:12.180Z,50.60
2018-12-19T14:37:38.181Z,50.67
2018-12-19T14:40:04.221Z,50.91
2018-12-19T14:42:30.191Z,51.25
2018-12-19T14:44:56.198Z,50.52
2018-12-19T14:47:22.174Z,50.81
2018-12-19T14:49:48.176Z,51.20
2018-12-19T14:52:14.117Z,51.26
2018-12-19T14:54:40.071Z,50.67
2018-12-19T14:57:06.078Z,50.88
2018-12-19T14:59:32.047Z,50.68
2018-12-19T15:01:58.200Z,51.10
2018-12-19T15:04:24.162Z,50.55
2018-12-19T15:06:50.116Z,51.27
2018-12-19T15:09:16.098Z,50.66
2018-12-19T15:11:42.081Z,51.26
2018-12-19T15:14:08.050Z,50.97
2018-12-19T15:16:34.028Z,50.73
2018-12-19T15:18:59.980Z,51.21
2018-12-19T15:21:25.969Z,51.10
2018-12-19T15:23:51.905Z,50.51
2018-12-19T15:26:17.893Z,50.13
2018-12-19T15:28:43.861Z,50.89
2018-12-19T15:31:09.817Z,50.82
2018-12-19T15:33:35.814Z,50.36
2018-12-19T15:36:01.779Z,50.59
2018-12-19T15:38:27.787Z,50.68
2018-12-19T15:40:53.759Z,50.34
2018-12-19T15:43:19.736Z,51.14
2018-12-19T15:45:45.686Z,50.67
2018-12-19T15:48:11.675Z,50.99
2018-12-19T15:50:37.727Z,50.87
2018-12-19T15:53:03.710Z,50.58
2018-12-19T15:55:29.769Z,51.06
2018-12-19T15:57:55.733Z,50.57
2018-12-19T16:00:21.725Z,50.92
2018-12-19T16:02:47.800Z,51.12
2018-12-19T16:05:13.749Z,50.73
2018-12-19T16:07:39.705Z,51.87
2018-12-19T16:10:05.719Z,51.00
2018-12-19T16:12:31.643Z,51.39
2018-12-19T16:14:57.597Z,51.23
2018-12-19T16:17:23.578Z,51.44
2018-12-19T16:19:49.529Z,51.02
2018-12-19T16:22:15.527Z,51.42
2018-12-19T16:24:41.521Z,50.85
2018-12-19T16:27:07.496Z,51.07
2018-12-19T16:29:33.454Z,51.52
2018-12-19T16:31:59.493Z,51.17
2018-12-19T16:34:25.437Z,51.52
2018-12-19T16:36:51.443Z,51.10
2018-12-19T16:39:17.430Z,51.43
2018-12-19T16:41:43.381Z,50.67
2018-12-19T16:44:09.390Z,50.93
2018-12-19T16:46:35.361Z,50.73
2018-12-19T16:49:01.332Z,51.56
2018-12-19T16:51:27.320Z,51.10
2018-12-19T16:53:53.268Z,50.74
2018-12-19T16:56:19.237Z,51.45
2018-12-19T16:58:45.225Z,51.61
2018-12-19T17:01:11.269Z,50.81
2018-12-19T17:03:37.243Z,50.94
2018-12-19T17:06:03.240Z,50.83
2018-12-19T17:08:29.281Z,51.31
2018-12-19T17:10:55.263Z,51.51
2018-12-19T17:13:21.213Z,51.12
2018-12-19T17:15:47.182Z,51.42
2018-12-19T17:18:13.356Z,51.11
2018-12-19T17:20:39.319Z,51.30
2018-12-19T17:23:05.306Z,50.87
2018-12-19T17:25:31.268Z,51.06
2018-12-19T17:27:57.263Z,51.45
2018-12-19T17:30:23.241Z,51.20
2018-12-19T17:32:49.270Z,51.07
2018-12-19T17:35:15.301Z,50.62
2018-12-19T17:37:41.266Z,50.80
2018-12-19T17:40:07.317Z,51.41
2018-12-19T17:42:33.292Z,51.16
2018-12-19T17:44:59.257Z,50.78
2018-12-19T17:47:25.223Z,51.33
2018-12-19T17:49:51.177Z,51.17
2018-12-19T17:52:17.162Z,51.17
2018-12-19T17:54:43.129Z,51.72
2018-12-19T17:57:09.090Z,51.42
2018-12-19T17:59:35.082Z,51.34
2018-12-19T18:02:01.047Z,51.03
2018-12-19T18:04:27.070Z,51.73
2018-12-19T18:06:53.032Z,51.39
2018-12-19T18:09:18.994Z,50.58
2018-12-19T18:11:44.956Z,51.18
2018-12-19T18:14:10.959Z,51.06
2018-12-19T18:16:36.922Z,51.13
2018-12-19T18:19:02.934Z,51.30
2018-12-19T18:21:28.902Z,51.50
2018-12-19T18:23:54.888Z,51.67
2018-12-19T18:26:20.841Z,51.87
2018-12-19T18:28:46.812Z,51.36
2018-12-19T18:31:12.790Z,51.48
2018-12-19T18:33:38.733Z,50.77
2018-12-19T18:36:04.706Z,51.86
2018-12-19T18:38:30.691Z,52.06
2018-12-19T18:40:56.681Z,51.61
2018-12-19T18:43:22.635Z,51.78
2018-12-19T18:45:48.602Z,51.03
2018-12-19T18:48:14.731Z,50.50
2018-12-19T18:50:41.950Z,50.95
2018-12-19T18:53:08.177Z,50.98
2018-12-19T18:55:34.250Z,50.62
2018-12-19T18:58:00.293Z,51.49
2018-12-19T19:00:26.368Z,50.50
2018-12-19T19:02:52.381Z,50.53
2018-12-19T19:05:18.465Z,51.25
2018-12-19T19:07:44.519Z,50.99
2018-12-19T19:10:10.464Z,51.86
2018-12-19T19:12:36.487Z,51.36
2018-12-19T19:15:02.508Z,51.68
2018-12-19T19:17:28.559Z,50.84
2018-12-19T19:19:54.605Z,51.52
2018-12-19T19:22:20.604Z,51.79
2018-12-19T19:24:46.570Z,51.05
2018-12-19T19:27:12.616Z,51.86
2018-12-19T19:29:38.579Z,51.14
2018-12-19T19:32:04.542Z,51.87
2018-12-19T19:34:30.515Z,50.97
2018-12-19T19:36:56.485Z,51.45
2018-12-19T19:39:22.445Z,51.59
2018-12-19T19:41:48.474Z,51.32
2018-12-19T19:46:46.743Z,50.93
2018-12-19T19:49:12.733Z,51.24
2018-12-19T19:51:38.806Z,51.32
2018-12-19T19:54:04.769Z,51.34
2018-12-19T19:56:30.736Z,51.94
2018-12-19T19:58:56.747Z,51.60
2018-12-19T20:01:22.724Z,51.04
2018-12-19T20:03:49.003Z,52.26
2018-12-19T20:06:15.023Z,51.45
2018-12-19T20:08:41.021Z,51.09
2018-12-19T20:11:07.049Z,50.99
2018-12-19T20:13:33.460Z,51.04
2018-12-19T20:15:59.718Z,51.17
2018-12-19T20:18:25.805Z,51.05
2018-12-19T20:20:51.878Z,52.03
2018-12-19T20:23:17.850Z,50.95
2018-12-19T20:25:43.847Z,51.39
2018-12-19T20:28:09.800Z,51.29
2018-12-19T20:30:35.750Z,51.18
2018-12-19T20:33:01.727Z,51.17
2018-12-19T20:35:27.683Z,51.24
2018-12-19T20:37:53.681Z,51.25
2018-12-19T20:40:19.663Z,51.28
2018-12-19T20:42:45.639Z,51.83
2018-12-19T20:45:11.597Z,51.14
2018-12-19T20:47:37.600Z,50.93
2018-12-19T20:50:03.607Z,51.76
2018-12-19T20:52:29.594Z,51.38
2018-12-19T20:54:55.582Z,51.77
2018-12-19T20:57:21.536Z,51.64
2018-12-19T20:59:47.594Z,51.61
2018-12-19T21:02:13.665Z,51.31
2018-12-19T21:04:39.636Z,52.26
2018-12-19T21:07:05.594Z,52.00
2018-12-19T21:09:31.548Z,51.29
2018-12-19T21:11:57.508Z,51.97
2018-12-19T21:14:23.489Z,51.58
2018-12-19T21:16:49.485Z,51.68
2018-12-19T21:19:15.453Z,51.26
2018-12-19T21:21:41.381Z,51.95
2018-12-19T21:24:07.349Z,51.32
2018-12-19T21:26:33.314Z,51.67
2018-12-19T21:28:59.298Z,52.13
2018-12-19T21:31:25.392Z,51.76
2018-12-19T21:33:51.404Z,51.61
2018-12-19T21:36:17.364Z,51.80
2018-12-19T21:38:43.375Z,52.25
2018-12-19T21:41:09.544Z,52.06
2018-12-19T21:43:35.547Z,51.49
2018-12-19T21:46:01.671Z,52.18
2018-12-19T21:48:27.870Z,51.75
2018-12-19T21:50:53.883Z,51.88
2018-12-19T21:53:19.933Z,51.54
2018-12-19T21:55:45.934Z,51.49
2018-12-19T21:58:11.955Z,52.23
2018-12-19T22:00:38.017Z,51.71
2018-12-19T22:03:04.012Z,51.92
2018-12-19T22:05:30.036Z,51.71
2018-12-19T22:07:56.138Z,51.17
2018-12-19T22:10:22.178Z,51.80
2018-12-19T22:12:48.170Z,51.43
2018-12-19T22:15:14.295Z,51.45
2018-12-19T22:17:40.266Z,51.52
2018-12-19T22:20:06.296Z,51.33
2018-12-19T22:22:32.431Z,51.65
2018-12-19T22:24:58.532Z,51.75
2018-12-19T22:27:24.508Z,51.25
2018-12-19T22:29:50.497Z,51.22
2018-12-19T22:32:16.466Z,51.67
2018-12-19T22:34:42.620Z,50.66
2018-12-19T22:37:08.661Z,52.25
2018-12-19T22:39:34.687Z,51.12
2018-12-19T22:42:00.749Z,51.03
2018-12-19T22:44:26.734Z,51.27
2018-12-19T22:46:52.693Z,51.14
2018-12-19T22:49:18.649Z,51.28
2018-12-19T22:51:44.722Z,50.70
2018-12-19T22:54:10.718Z,50.95
2018-12-19T22:56:36.745Z,51.28
2018-12-19T22:59:02.738Z,51.29
2018-12-19T23:01:28.750Z,50.89
2018-12-19T23:03:54.775Z,51.01
2018-12-19T23:06:20.853Z,51.63
2018-12-19T23:08:46.962Z,51.05
2018-12-19T23:11:12.994Z,51.12
2018-12-19T23:13:39.040Z,50.93
2018-12-19T23:16:05.205Z,51.44
2018-12-19T23:18:31.209Z,51.17
2018-12-19T23:20:57.187Z,50.74
2018-12-19T23:23:23.247Z,51.40
2018-12-19T23:25:49.397Z,51.14
2018-12-19T23:28:15.629Z,51.45
2018-12-19T23:30:41.722Z,51.71
2018-12-19T23:33:07.761Z,50.98
2018-12-19T23:35:33.743Z,51.51
2018-12-19T23:37:59.834Z,51.78
2018-12-19T23:40:25.898Z,51.29
2018-12-19T23:42:51.983Z,51.78
2018-12-19T23:45:18.078Z,51.09
2018-12-19T23:47:44.154Z,51.13
2018-12-19T23:50:10.228Z,51.20
2018-12-19T23:52:36.452Z,51.52
2018-12-19T23:55:02.681Z,51.04
2018-12-19T23:57:28.871Z,51.15
2018-12-19T23:59:54.971Z,50.84
